createdAt,value
2019-02-24T00:00:25.341Z,11.43
2019-02-24T00:02:57.774Z,11.37
2019-02-24T00:05:28.430Z,11.03
2019-02-24T00:07:59.224Z,11.17
2019-02-24T00:10:29.968Z,11.63
2019-02-24T00:13:00.686Z,11.97
2019-02-24T00:15:31.494Z,11.83
2019-02-24T00:18:02.520Z,11.53
2019-02-24T00:20:33.209Z,10.93
2019-02-24T00:23:03.958Z,12.73
2019-02-24T00:25:34.647Z,11.80
2019-02-24T00:28:07.318Z,11.83
2019-02-24T00:30:37.790Z,11.47
2019-02-24T00:33:08.468Z,12.07
2019-02-24T00:35:40.881Z,12.17
2019-02-24T00:38:12.593Z,11.73
2019-02-24T00:40:43.308Z,11.73
2019-02-24T00:43:13.962Z,12.40
2019-02-24T00:45:44.994Z,12.43
2019-02-24T00:48:15.629Z,12.07
2019-02-24T00:50:47.858Z,12.30
2019-02-24T00:53:18.486Z,11.90
2019-02-24T00:55:49.178Z,10.93
2019-02-24T00:58:19.973Z,12.13
2019-02-24T01:00:52.230Z,12.57
2019-02-24T01:03:23.093Z,12.20
2019-02-24T01:05:53.898Z,12.00
2019-02-24T01:08:24.566Z,12.23
2019-02-24T01:10:55.510Z,12.53
2019-02-24T01:13:26.168Z,12.50
2019-02-24T01:15:56.853Z,12.67
2019-02-24T01:18:28.891Z,12.70
2019-02-24T01:20:59.590Z,13.43
2019-02-24T01:23:30.353Z,13.20
2019-02-24T01:26:01.016Z,13.63
2019-02-24T01:28:31.693Z,13.80
2019-02-24T01:31:03.451Z,14.87
2019-02-24T01:33:34.141Z,14.87
2019-02-24T01:36:04.813Z,15.33
2019-02-24T01:38:35.462Z,14.90
2019-02-24T01:41:06.079Z,15.33
2019-02-24T01:43:36.753Z,15.33
2019-02-24T01:46:07.585Z,16.57
2019-02-24T01:48:38.378Z,15.60
2019-02-24T02:10:03.749Z,15.00
2019-02-24T02:12:34.572Z,15.00
2019-02-24T02:15:05.468Z,15.33
2019-02-24T02:17:36.435Z,15.60
2019-02-24T02:20:07.279Z,15.13
2019-02-24T02:22:38.510Z,15.13
2019-02-24T02:25:09.747Z,15.40
2019-02-24T02:27:41.337Z,15.57
2019-02-24T02:30:12.413Z,14.83
2019-02-24T02:32:43.791Z,15.47
2019-02-24T02:35:14.503Z,12.93
2019-02-24T02:37:45.234Z,15.23
2019-02-24T02:40:16.014Z,14.47
2019-02-24T02:42:46.974Z,14.03
2019-02-24T02:45:17.761Z,13.40
2019-02-24T02:47:49.174Z,13.97
2019-02-24T02:50:20.198Z,13.80
2019-02-24T02:52:50.993Z,14.43
2019-02-24T02:55:21.659Z,14.37
2019-02-24T02:57:52.385Z,13.80
2019-02-24T03:00:31.713Z,14.13
2019-02-24T03:03:02.544Z,14.43
2019-02-24T03:05:33.262Z,14.47
2019-02-24T03:08:08.073Z,15.27
2019-02-24T03:10:38.995Z,14.90
2019-02-24T03:13:09.817Z,14.70
2019-02-24T03:15:40.674Z,14.77
2019-02-24T03:18:11.314Z,15.33
2019-02-24T03:20:42.084Z,14.67
2019-02-24T03:23:13.548Z,13.80
2019-02-24T03:25:44.675Z,14.20
2019-02-24T03:28:15.462Z,15.33
2019-02-24T03:30:46.222Z,14.37
2019-02-24T03:33:17.772Z,15.33
2019-02-24T03:35:48.944Z,13.90
2019-02-24T03:38:20.494Z,14.70
2019-02-24T03:40:51.306Z,14.70
2019-02-24T03:43:22.515Z,14.87
2019-02-24T03:45:54.230Z,13.90
2019-02-24T03:48:25.237Z,14.47
2019-02-24T03:50:56.274Z,14.87
2019-02-24T03:53:27.039Z,14.87
2019-02-24T03:55:57.794Z,14.90
2019-02-24T03:58:29.772Z,16.27
2019-02-24T04:01:01.685Z,14.87
2019-02-24T04:03:33.148Z,15.13
2019-02-24T04:06:03.847Z,16.30
2019-02-24T04:08:34.516Z,16.03
2019-02-24T04:11:05.842Z,13.90
2019-02-24T04:13:37.617Z,15.07
2019-02-24T04:16:08.762Z,15.33
2019-02-24T04:18:39.493Z,14.93
2019-02-24T04:21:10.297Z,14.60
2019-02-24T04:23:41.187Z,14.83
2019-02-24T04:26:11.913Z,14.97
2019-02-24T04:28:42.823Z,16.23
2019-02-24T04:31:13.455Z,15.63
2019-02-24T04:33:45.221Z,15.63
2019-02-24T04:36:15.913Z,15.87
2019-02-24T04:38:46.586Z,15.63
2019-02-24T04:41:17.534Z,15.73
2019-02-24T04:43:49.710Z,15.53
2019-02-24T04:46:20.432Z,14.63
2019-02-24T04:48:52.694Z,15.43
2019-02-24T04:51:23.471Z,15.20
2019-02-24T04:53:54.234Z,16.23
2019-02-24T04:56:25.134Z,15.73
2019-02-24T04:58:55.880Z,15.73
2019-02-24T05:01:26.614Z,15.57
2019-02-24T05:03:57.374Z,16.27
2019-02-24T05:06:28.193Z,16.33
2019-02-24T05:08:58.973Z,16.17
2019-02-24T05:11:29.718Z,16.97
2019-02-24T05:14:00.522Z,16.60
2019-02-24T05:16:31.308Z,16.03
2019-02-24T05:19:02.886Z,16.43
2019-02-24T05:21:33.651Z,15.73
2019-02-24T05:24:04.310Z,16.40
2019-02-24T05:26:35.100Z,15.10
2019-02-24T05:29:05.837Z,16.30
2019-02-24T05:31:36.551Z,16.80
2019-02-24T05:34:07.215Z,16.00
2019-02-24T05:36:37.979Z,16.10
2019-02-24T05:39:08.634Z,17.83
2019-02-24T05:41:39.357Z,16.27
2019-02-24T05:44:10.077Z,16.40
2019-02-24T05:46:40.751Z,16.50
2019-02-24T05:49:11.493Z,16.23
2019-02-24T05:51:42.200Z,16.33
2019-02-24T05:54:12.933Z,15.70
2019-02-24T05:56:43.655Z,16.27
2019-02-24T05:59:14.403Z,15.90
2019-02-24T06:01:46.107Z,15.77
2019-02-24T06:04:16.825Z,16.83
2019-02-24T06:06:47.581Z,16.57
2019-02-24T06:09:18.242Z,16.57
2019-02-24T06:11:48.858Z,16.57
2019-02-24T06:14:19.614Z,16.37
2019-02-24T06:16:51.318Z,15.90
2019-02-24T06:19:22.186Z,17.30
2019-02-24T06:21:53.829Z,16.93
2019-02-24T06:24:24.519Z,15.60
2019-02-24T06:26:55.273Z,16.77
2019-02-24T06:29:26.023Z,17.07
2019-02-24T06:31:56.795Z,16.97
2019-02-24T06:34:27.579Z,16.87
2019-02-24T06:36:58.472Z,17.20
2019-02-24T06:39:30.410Z,17.30
2019-02-24T06:42:01.153Z,17.33
2019-02-24T06:44:32.238Z,17.13
2019-02-24T06:47:03.935Z,17.47
2019-02-24T06:49:34.940Z,17.23
2019-02-24T06:52:05.819Z,16.63
2019-02-24T06:54:36.645Z,16.07
2019-02-24T06:57:07.372Z,17.47
2019-02-24T06:59:38.154Z,17.17
2019-02-24T07:02:09.152Z,17.23
2019-02-24T07:04:40.038Z,16.90
2019-02-24T07:07:10.819Z,15.73
2019-02-24T07:09:41.562Z,17.50
2019-02-24T07:12:12.387Z,18.13
2019-02-24T07:14:43.254Z,16.87
2019-02-24T07:17:15.277Z,17.20
2019-02-24T07:19:46.470Z,17.37
2019-02-24T07:22:17.678Z,17.60
2019-02-24T07:24:48.395Z,17.63
2019-02-24T07:27:19.051Z,16.93
2019-02-24T07:29:50.695Z,18.23
2019-02-24T07:32:22.758Z,17.73
2019-02-24T07:34:53.974Z,16.73
2019-02-24T07:37:25.453Z,17.83
2019-02-24T07:39:56.221Z,17.70
2019-02-24T07:42:27.218Z,16.67
2019-02-24T07:44:57.994Z,17.70
2019-02-24T07:47:28.771Z,17.87
2019-02-24T07:49:59.420Z,17.53
2019-02-24T07:52:30.216Z,15.83
2019-02-24T07:55:01.007Z,17.27
2019-02-24T07:57:32.005Z,18.50
2019-02-24T08:00:02.669Z,15.93
2019-02-24T08:02:33.732Z,14.83
2019-02-24T08:05:04.631Z,15.83
2019-02-24T08:07:35.373Z,15.80
2019-02-24T08:10:06.799Z,14.43
2019-02-24T08:12:37.634Z,13.97
2019-02-24T08:15:08.562Z,14.00
2019-02-24T08:17:39.442Z,13.77
2019-02-24T08:20:10.265Z,14.53
2019-02-24T08:22:41.052Z,14.67
2019-02-24T08:25:11.913Z,13.50
2019-02-24T08:27:42.637Z,13.73
2019-02-24T08:30:13.789Z,12.17
2019-02-24T08:32:44.544Z,12.90
2019-02-24T08:35:15.287Z,13.50
2019-02-24T08:37:49.740Z,12.33
2019-02-24T08:40:20.479Z,12.47
2019-02-24T08:42:51.246Z,12.60
2019-02-24T08:45:22.014Z,13.63
2019-02-24T08:47:52.835Z,12.40
2019-02-24T08:50:23.638Z,12.23
2019-02-24T08:52:54.393Z,11.97
2019-02-24T08:55:25.151Z,12.83
2019-02-24T08:57:56.081Z,11.83
2019-02-24T09:00:27.919Z,12.20
2019-02-24T09:02:58.758Z,12.80
2019-02-24T09:05:29.769Z,11.80
2019-02-24T09:08:00.969Z,12.53
2019-02-24T09:10:31.775Z,12.80
2019-02-24T09:13:02.580Z,11.60
2019-02-24T09:15:33.499Z,11.13
2019-02-24T09:18:04.316Z,11.67
2019-02-24T09:20:35.141Z,12.23
2019-02-24T09:23:05.891Z,12.13
2019-02-24T09:25:38.199Z,11.80
2019-02-24T09:28:08.874Z,11.60
2019-02-24T09:30:41.637Z,11.53
2019-02-24T09:33:12.503Z,11.50
2019-02-24T09:35:43.414Z,11.67
2019-02-24T09:38:14.175Z,12.10
2019-02-24T09:40:44.944Z,11.83
2019-02-24T09:43:16.017Z,12.10
2019-02-24T09:45:46.814Z,11.83
2019-02-24T09:48:17.669Z,11.33
2019-02-24T09:50:48.948Z,12.43
2019-02-24T09:53:19.849Z,11.87
2019-02-24T09:55:51.815Z,11.70
2019-02-24T09:58:22.510Z,11.80
2019-02-24T10:00:53.322Z,11.87
2019-02-24T10:03:24.463Z,11.30
2019-02-24T10:05:55.638Z,11.07
2019-02-24T10:08:28.792Z,11.80
2019-02-24T10:11:00.002Z,11.40
2019-02-24T10:13:30.742Z,11.30
2019-02-24T10:16:01.472Z,11.30
2019-02-24T10:18:32.223Z,11.77
2019-02-24T10:21:03.191Z,12.23
2019-02-24T10:23:33.995Z,12.20
2019-02-24T10:26:04.760Z,10.83
2019-02-24T10:28:35.652Z,12.30
2019-02-24T10:31:06.633Z,11.43
2019-02-24T10:33:37.384Z,12.13
2019-02-24T10:36:08.200Z,12.23
2019-02-24T10:38:39.075Z,12.63
2019-02-24T10:41:09.876Z,11.50
2019-02-24T10:43:40.974Z,12.30
2019-02-24T10:46:12.654Z,13.17
2019-02-24T10:48:44.361Z,11.73
2019-02-24T10:51:16.631Z,11.93
2019-02-24T10:53:47.417Z,12.23
2019-02-24T10:56:18.230Z,12.77
2019-02-24T10:58:49.046Z,12.10
2019-02-24T11:01:29.749Z,12.67
2019-02-24T11:03:55.979Z,11.93
2019-02-24T11:06:26.719Z,13.13
2019-02-24T11:08:57.458Z,12.17
2019-02-24T11:11:28.413Z,12.63
2019-02-24T11:13:59.178Z,12.77
2019-02-24T11:16:29.995Z,12.53
2019-02-24T11:19:00.704Z,12.07
2019-02-24T11:21:31.430Z,12.53
2019-02-24T11:24:02.224Z,11.57
2019-02-24T11:26:33.006Z,12.97
2019-02-24T11:29:04.983Z,12.40
2019-02-24T11:31:38.303Z,12.27
2019-02-24T11:34:11.599Z,11.97
2019-02-24T11:36:42.897Z,11.67
2019-02-24T11:39:13.756Z,11.70
2019-02-24T11:41:44.859Z,11.80
2019-02-24T11:44:15.793Z,11.50
2019-02-24T11:46:46.732Z,12.30
2019-02-24T11:49:19.954Z,12.20
2019-02-24T11:51:50.677Z,11.60
2019-02-24T11:54:21.453Z,11.60
2019-02-24T11:56:52.300Z,12.23
2019-02-24T11:59:23.062Z,12.33
2019-02-24T12:01:54.809Z,11.27
2019-02-24T12:04:25.626Z,12.53
2019-02-24T12:06:56.395Z,11.20
2019-02-24T12:09:27.553Z,11.87
2019-02-24T12:12:11.494Z,11.47
2019-02-24T12:14:42.332Z,11.23
2019-02-24T12:17:13.090Z,12.17
2019-02-24T12:19:44.578Z,11.70
2019-02-24T12:22:15.290Z,11.37
2019-02-24T12:24:47.046Z,12.37
2019-02-24T12:27:17.850Z,11.93
2019-02-24T12:29:49.477Z,11.63
2019-02-24T12:32:20.843Z,12.10
2019-02-24T12:34:52.089Z,12.17
2019-02-24T12:37:22.843Z,12.50
2019-02-24T12:39:54.180Z,12.53
2019-02-24T12:42:25.002Z,11.83
2019-02-24T12:44:56.425Z,11.23
2019-02-24T12:47:27.168Z,11.80
2019-02-24T12:50:03.312Z,11.67
2019-02-24T12:52:30.517Z,11.37
2019-02-24T12:55:01.679Z,12.13
2019-02-24T12:57:32.939Z,11.47
2019-02-24T13:00:04.011Z,12.80
2019-02-24T13:02:35.247Z,12.13
2019-02-24T13:05:06.726Z,11.67
2019-02-24T13:07:37.843Z,11.40
2019-02-24T13:10:11.857Z,12.37
2019-02-24T13:12:43.084Z,12.43
2019-02-24T13:15:13.272Z,13.10
2019-02-24T13:17:45.163Z,11.40
2019-02-24T13:20:16.000Z,11.67
2019-02-24T13:22:46.802Z,11.83
2019-02-24T13:25:17.558Z,11.93
2019-02-24T13:27:49.432Z,10.77
2019-02-24T13:30:20.341Z,11.00
2019-02-24T13:32:51.170Z,11.03
2019-02-24T13:35:21.858Z,12.07
2019-02-24T13:37:52.654Z,11.53
2019-02-24T13:40:23.988Z,12.27
2019-02-24T13:42:54.846Z,11.10
2019-02-24T13:45:26.932Z,11.27
2019-02-24T13:47:59.472Z,11.23
2019-02-24T13:50:31.957Z,11.60
2019-02-24T13:53:04.002Z,11.17
2019-02-24T13:55:36.045Z,11.23
2019-02-24T13:58:06.985Z,11.13
2019-02-24T14:00:37.771Z,10.93
2019-02-24T14:03:10.642Z,11.03
2019-02-24T14:05:41.454Z,11.30
2019-02-24T14:08:12.116Z,10.83
2019-02-24T14:10:42.950Z,10.53
2019-02-24T14:13:13.758Z,10.67
2019-02-24T14:15:44.494Z,11.13
2019-02-24T14:18:15.357Z,10.50
2019-02-24T14:20:46.093Z,11.57
2019-02-24T14:23:16.937Z,10.30
2019-02-24T14:25:47.747Z,10.90
2019-02-24T14:28:18.526Z,10.90
2019-02-24T14:30:49.317Z,10.40
2019-02-24T14:33:20.084Z,11.23
2019-02-24T14:35:50.741Z,10.80
2019-02-24T14:38:21.562Z,10.90
2019-02-24T14:40:52.249Z,10.90
2019-02-24T14:43:23.074Z,10.33
2019-02-24T14:45:53.749Z,10.27
2019-02-24T14:48:24.469Z,10.50
2019-02-24T14:50:55.249Z,11.30
2019-02-24T14:53:26.121Z,10.37
2019-02-24T14:55:57.147Z,10.33
2019-02-24T14:58:27.958Z,10.47
2019-02-24T15:01:00.646Z,9.90
2019-02-24T15:03:31.376Z,10.03
2019-02-24T15:06:02.022Z,10.57
2019-02-24T15:08:33.717Z,10.10
2019-02-24T15:11:04.353Z,9.77
2019-02-24T15:13:35.024Z,9.90
2019-02-24T15:16:05.761Z,10.00
2019-02-24T15:18:36.537Z,10.00
2019-02-24T15:21:07.290Z,9.93
2019-02-24T15:23:38.069Z,9.80
2019-02-24T15:26:08.849Z,9.37
2019-02-24T15:28:39.573Z,9.40
2019-02-24T15:31:11.838Z,9.57
2019-02-24T15:33:42.533Z,9.13
2019-02-24T15:36:13.326Z,9.80
2019-02-24T15:38:44.000Z,9.53
2019-02-24T15:41:14.690Z,9.87
2019-02-24T15:43:45.538Z,8.93
2019-02-24T15:46:16.283Z,9.37
2019-02-24T15:48:47.067Z,10.00
2019-02-24T15:51:17.718Z,9.30
2019-02-24T15:53:48.581Z,9.60
2019-02-24T15:56:19.398Z,9.30
2019-02-24T15:58:51.742Z,9.47
2019-02-24T16:01:22.641Z,9.03
2019-02-24T16:03:53.395Z,9.10
2019-02-24T16:06:25.362Z,9.20
2019-02-24T16:08:57.814Z,9.67
2019-02-24T16:11:30.847Z,9.70
2019-02-24T16:14:01.652Z,9.60
2019-02-24T16:16:33.473Z,9.77
2019-02-24T16:19:04.324Z,10.30
2019-02-24T16:21:35.074Z,10.70
2019-02-24T16:24:05.950Z,10.43
2019-02-24T16:26:36.646Z,9.93
2019-02-24T16:29:07.348Z,10.73
2019-02-24T16:31:38.155Z,10.93
2019-02-24T16:34:10.467Z,10.90
2019-02-24T16:36:41.226Z,10.33
2019-02-24T16:39:12.955Z,10.17
2019-02-24T16:41:43.756Z,10.50
2019-02-24T16:44:14.834Z,10.57
2019-02-24T16:46:46.497Z,13.30
2019-02-24T16:49:17.153Z,12.37
2019-02-24T16:51:47.902Z,11.87
2019-02-24T16:54:18.705Z,11.00
2019-02-24T16:56:50.845Z,11.07
2019-02-24T16:59:21.714Z,11.27
2019-02-24T17:01:54.210Z,12.23
2019-02-24T17:04:26.723Z,11.00
2019-02-24T17:06:57.414Z,11.60
2019-02-24T17:09:28.107Z,12.07
2019-02-24T17:11:58.860Z,11.50
2019-02-24T17:14:29.598Z,13.37
2019-02-24T17:17:01.846Z,11.73
2019-02-24T17:19:32.674Z,12.37
2019-02-24T17:22:03.459Z,13.17
2019-02-24T17:24:34.242Z,11.57
2019-02-24T17:27:04.995Z,11.83
2019-02-24T17:29:35.694Z,12.73
2019-02-24T17:32:06.427Z,12.33
2019-02-24T17:34:37.052Z,13.20
2019-02-24T17:37:09.294Z,12.47
2019-02-24T17:39:40.108Z,12.47
2019-02-24T17:42:10.949Z,12.20
2019-02-24T17:44:41.694Z,12.37
2019-02-24T17:47:12.446Z,12.03
2019-02-24T17:49:43.181Z,12.10
2019-02-24T17:52:13.993Z,12.60
2019-02-24T17:54:45.831Z,11.60
2019-02-24T17:57:16.599Z,11.87
2019-02-24T17:59:47.342Z,11.90
2019-02-24T18:02:19.346Z,12.20
2019-02-24T18:04:50.112Z,11.53
2019-02-24T18:07:20.895Z,12.00
2019-02-24T18:09:51.599Z,11.80
2019-02-24T18:12:22.363Z,11.37
2019-02-24T18:14:53.091Z,11.97
2019-02-24T18:17:24.446Z,12.27
2019-02-24T18:19:56.708Z,11.53
2019-02-24T18:22:28.545Z,12.37
2019-02-24T18:25:03.074Z,12.97
2019-02-24T18:27:32.097Z,12.83
2019-02-24T18:30:02.850Z,12.80
2019-02-24T18:32:33.785Z,12.60
2019-02-24T18:35:10.122Z,13.73
2019-02-24T18:37:40.901Z,14.47
2019-02-24T18:40:14.482Z,13.10
2019-02-24T18:42:48.715Z,13.27
2019-02-24T18:45:20.419Z,12.43
2019-02-24T18:47:57.111Z,13.03
2019-02-24T18:50:28.931Z,12.87
2019-02-24T18:53:06.389Z,14.17
2019-02-24T18:55:36.883Z,14.27
2019-02-24T18:58:08.486Z,13.63
2019-02-24T19:00:40.495Z,14.13
2019-02-24T19:03:12.838Z,15.90
2019-02-24T19:05:45.267Z,15.60
2019-02-24T19:08:17.530Z,15.23
2019-02-24T19:10:48.274Z,14.63
2019-02-24T19:13:21.229Z,15.17
2019-02-24T19:15:52.670Z,14.77
2019-02-24T19:18:24.926Z,15.07
2019-02-24T19:20:58.767Z,15.90
2019-02-24T19:23:29.521Z,14.43
2019-02-24T19:26:00.283Z,15.20
2019-02-24T19:28:31.381Z,15.73
2019-02-24T19:31:06.097Z,14.93
2019-02-24T19:33:40.442Z,14.97
2019-02-24T19:36:11.146Z,15.80
2019-02-24T19:38:47.183Z,15.57
2019-02-24T19:41:19.129Z,15.43
2019-02-24T19:43:49.996Z,16.47
2019-02-24T19:46:20.794Z,16.67
2019-02-24T19:48:52.492Z,17.37
2019-02-24T19:51:23.179Z,18.77
2019-02-24T19:53:53.911Z,19.20
2019-02-24T19:56:24.610Z,18.57
2019-02-24T19:58:55.560Z,18.00
2019-02-24T20:01:26.780Z,20.27
2019-02-24T20:03:57.600Z,21.07
2019-02-24T20:06:28.331Z,18.47
2019-02-24T20:09:00.634Z,19.47
2019-02-24T20:11:32.982Z,20.20
2019-02-24T20:14:03.860Z,19.97
2019-02-24T20:16:34.879Z,19.43
2019-02-24T20:19:05.738Z,17.60
2019-02-24T20:21:36.576Z,17.50
2019-02-24T20:24:07.299Z,17.13
2019-02-24T20:26:38.061Z,16.93
2019-02-24T20:29:09.234Z,16.30
2019-02-24T20:31:39.972Z,17.53
2019-02-24T20:34:12.330Z,17.30
2019-02-24T20:36:43.325Z,16.33
2019-02-24T20:39:14.457Z,18.53
2019-02-24T20:41:46.859Z,19.53
2019-02-24T20:44:17.654Z,16.53
2019-02-24T20:46:48.397Z,15.30
2019-02-24T20:49:23.788Z,14.23
2019-02-24T20:51:54.651Z,16.13
2019-02-24T20:54:25.590Z,17.20
2019-02-24T20:56:56.661Z,17.20
2019-02-24T20:59:27.530Z,18.30
2019-02-24T21:02:00.383Z,18.10
2019-02-24T21:04:30.883Z,17.53
2019-02-24T21:07:02.444Z,13.80
2019-02-24T21:09:33.690Z,13.67
2019-02-24T21:12:04.351Z,13.40
2019-02-24T21:14:35.098Z,13.07
2019-02-24T21:17:05.747Z,13.20
2019-02-24T21:19:38.967Z,12.77
2019-02-24T21:22:09.743Z,12.10
2019-02-24T21:24:40.562Z,12.47
2019-02-24T21:27:11.342Z,13.47
2019-02-24T21:29:42.014Z,13.20
2019-02-24T21:32:12.754Z,15.00
2019-02-24T21:34:43.467Z,15.20
2019-02-24T21:37:14.286Z,14.73
2019-02-24T21:39:45.094Z,15.27
2019-02-24T21:42:15.922Z,15.60
2019-02-24T21:44:46.757Z,14.83
2019-02-24T21:47:17.463Z,15.50
2019-02-24T21:49:48.945Z,16.10
2019-02-24T21:52:21.567Z,14.67
2019-02-24T21:54:52.351Z,16.00
2019-02-24T21:57:23.137Z,16.73
2019-02-24T21:59:53.921Z,16.77
2019-02-24T22:02:24.638Z,16.20
2019-02-24T22:04:55.413Z,16.77
2019-02-24T22:07:26.140Z,16.43
2019-02-24T22:09:59.225Z,16.63
2019-02-24T22:12:30.014Z,16.83
2019-02-24T22:15:00.725Z,17.37
2019-02-24T22:17:31.442Z,17.40
2019-02-24T22:20:02.158Z,17.60
2019-02-24T22:22:32.905Z,16.83
2019-02-24T22:25:03.647Z,17.50
2019-02-24T22:27:34.421Z,17.10
2019-02-24T22:30:05.947Z,16.80
2019-02-24T22:32:39.520Z,16.93
2019-02-24T22:35:10.571Z,17.53
2019-02-24T22:37:42.273Z,17.13
2019-02-24T22:40:13.102Z,18.67
2019-02-24T22:42:45.073Z,18.67
2019-02-24T22:45:16.934Z,18.23
2019-02-24T22:47:47.993Z,18.13
2019-02-24T22:50:18.984Z,19.57
2019-02-24T22:52:49.708Z,18.60
2019-02-24T22:55:21.502Z,20.07
2019-02-24T22:57:53.097Z,19.83
2019-02-24T23:00:57.445Z,20.50
2019-02-24T23:03:35.238Z,21.07
2019-02-24T23:06:06.260Z,20.23
2019-02-24T23:08:38.249Z,21.50
2019-02-24T23:11:09.135Z,20.47
2019-02-24T23:13:40.011Z,20.43
2019-02-24T23:16:11.055Z,20.73
2019-02-24T23:18:43.500Z,20.30
2019-02-24T23:21:14.439Z,20.60
2019-02-24T23:23:45.121Z,20.33
2019-02-24T23:26:15.845Z,20.93
2019-02-24T23:28:46.589Z,20.93
2019-02-24T23:31:17.338Z,20.57
2019-02-24T23:33:48.049Z,20.33
2019-02-24T23:36:18.895Z,20.20
2019-02-24T23:38:49.719Z,21.20
2019-02-24T23:41:20.391Z,20.63
2019-02-24T23:43:51.323Z,21.30
2019-02-24T23:46:22.089Z,21.17
2019-02-24T23:48:52.792Z,21.43
2019-02-24T23:51:23.812Z,20.97
2019-02-24T23:53:54.663Z,20.10
2019-02-24T23:56:25.301Z,20.90
2019-02-24T23:58:55.975Z,19.97
